Time;durP1;ratioP1;P1;durP2;ratioP2;P2;SDS_P1;SDS_P2;PMS_P1;PMS_P2;Temp;Humidity;BMP_temperature;BMP_pressure;BME280_temperature;BME280_humidity;BME280_pressure;Samples;Min_cycle;Max_cycle;Signal;HPM_P1;HPM_P2
2023/01/13 00:00:05;;;;;;;19.60;11.23;;;;;;;-2.44;100.00;100492.75;5039989;28;20031;-75
2023/01/13 00:02:32;;;;;;;23.13;12.18;;;;;;;-2.40;100.00;100494.25;5026071;28;20025;-75
2023/01/13 00:04:58;;;;;;;15.23;11.00;;;;;;;-2.41;100.00;100484.75;5048208;28;20107;-76
2023/01/13 00:07:23;;;;;;;16.20;9.93;;;;;;;-2.66;100.00;100434.91;5048078;28;20482;-76
2023/01/13 00:09:49;;;;;;;15.37;10.90;;;;;;;-2.44;100.00;100482.31;5048669;28;20025;-75
2023/01/13 00:12:19;;;;;;;16.60;10.53;;;;;;;-2.45;100.00;100479.78;5049922;28;20060;-75
2023/01/13 00:14:45;;;;;;;13.88;11.38;;;;;;;-2.47;100.00;100479.88;5044959;28;20033;-75
2023/01/13 00:17:12;;;;;;;18.53;9.83;;;;;;;-2.47;100.00;100487.69;5044236;28;20141;-73
2023/01/13 00:19:38;;;;;;;15.07;9.80;;;;;;;-2.40;100.00;100475.16;5045319;28;20040;-75
2023/01/13 00:22:03;;;;;;;12.47;9.17;;;;;;;-2.42;100.00;100484.81;5045065;28;20088;-76
2023/01/13 00:24:29;;;;;;;14.07;11.43;;;;;;;-2.39;100.00;100469.84;5039548;28;20504;-77
2023/01/13 00:26:55;;;;;;;12.93;9.80;;;;;;;-2.45;100.00;100454.56;5023788;28;20487;-76
2023/01/13 00:29:23;;;;;;;13.13;9.73;;;;;;;-2.44;100.00;100451.00;5024586;28;20029;-74
2023/01/13 00:31:49;;;;;;;13.05;10.35;;;;;;;-2.48;100.00;100439.09;5021109;28;20492;-74
2023/01/13 00:34:14;;;;;;;16.97;10.17;;;;;;;-2.36;100.00;100450.56;5038539;28;20041;-74
2023/01/13 00:36:40;;;;;;;14.07;9.40;;;;;;;-2.42;100.00;100443.09;5022402;28;20045;-76
2023/01/13 00:39:12;;;;;;;17.27;9.93;;;;;;;-2.48;100.00;100420.84;5038591;28;20124;-75
2023/01/13 00:44:21;;;;;;;13.55;9.88;;;;;;;-2.36;100.00;100435.75;5038548;28;20119;-75
2023/01/13 00:46:47;;;;;;;15.50;9.77;;;;;;;-2.36;100.00;100427.94;5041276;28;20060;-75
2023/01/13 00:49:20;;;;;;;16.13;10.63;;;;;;;-2.26;100.00;100423.88;5038017;28;20453;-75
2023/01/13 00:51:46;;;;;;;12.77;9.70;;;;;;;-2.24;100.00;100429.84;5039331;28;20025;-77
2023/01/13 00:54:11;;;;;;;11.37;8.57;;;;;;;-2.19;100.00;100409.53;5035704;28;20361;-74
2023/01/13 00:56:36;;;;;;;13.07;8.67;;;;;;;-2.23;100.00;100405.44;5039310;28;20025;-75
2023/01/13 00:59:02;;;;;;;12.53;8.63;;;;;;;-2.16;100.00;100410.28;5056985;28;20022;-75
2023/01/13 01:01:28;;;;;;;11.37;8.17;;;;;;;-2.20;100.00;100387.00;5018478;28;20025;-75
2023/01/13 01:03:54;;;;;;;11.10;9.13;;;;;;;-2.18;100.00;100394.72;5034503;28;20256;-75
2023/01/13 01:06:22;;;;;;;15.67;9.30;;;;;;;-2.34;100.00;100373.91;5016772;28;20040;-74
2023/01/13 01:08:48;;;;;;;14.40;10.02;;;;;;;-2.22;100.00;100388.88;5034215;28;20035;-74
2023/01/13 01:11:17;;;;;;;14.93;8.85;;;;;;;-2.21;100.00;100390.53;5033727;28;20024;-75
2023/01/13 01:13:43;;;;;;;12.80;8.93;;;;;;;-2.20;100.00;100373.97;5033807;28;20032;-74
2023/01/13 01:16:12;;;;;;;9.97;7.83;;;;;;;-2.27;100.00;100354.38;5015726;28;20045;-75
2023/01/13 01:18:46;;;;;;;15.23;9.57;;;;;;;-2.31;100.00;100355.50;5038859;28;20276;-74
2023/01/13 01:21:13;;;;;;;13.32;8.57;;;;;;;-2.20;100.00;100349.63;5038437;28;20291;-74
2023/01/13 01:23:39;;;;;;;14.38;10.48;;;;;;;-2.22;100.00;100352.34;5018713;28;20038;-75
2023/01/13 01:26:11;;;;;;;13.63;8.00;;;;;;;-2.15;100.00;100351.97;5033814;28;20376;-74
2023/01/13 01:28:37;;;;;;;12.03;8.23;;;;;;;-2.07;100.00;100352.34;5033727;28;20251;-75
2023/01/13 01:31:07;;;;;;;10.83;8.77;;;;;;;-2.11;100.00;100348.25;5034093;28;20268;-76
2023/01/13 01:33:33;;;;;;;13.23;9.00;;;;;;;-2.16;100.00;100340.69;5033602;28;20500;-75
2023/01/13 01:36:00;;;;;;;10.70;8.03;;;;;;;-2.28;100.00;100336.22;5033299;28;20041;-76
2023/01/13 01:38:26;;;;;;;11.98;7.85;;;;;;;-2.29;100.00;100331.94;5033305;28;20033;-75
2023/01/13 01:40:51;;;;;;;15.67;8.07;;;;;;;-2.31;100.00;100326.81;5033331;28;20040;-73
2023/01/13 01:46:04;;;;;;;9.30;7.53;;;;;;;-2.24;100.00;100312.47;5034022;28;20017;-75
2023/01/13 01:48:33;;;;;;;12.43;7.78;;;;;;;-2.34;100.00;100287.00;5016592;28;20029;-75
2023/01/13 01:51:00;;;;;;;12.73;7.93;;;;;;;-2.40;100.00;100280.41;5034202;28;20037;-76
2023/01/13 01:53:29;;;;;;;15.37;8.80;;;;;;;-2.41;100.00;100283.09;5037481;28;20056;-76
2023/01/13 01:55:56;;;;;;;11.40;8.10;;;;;;;-2.46;100.00;100272.94;5039836;28;20256;-73
2023/01/13 01:58:34;;;;;;;12.05;7.50;;;;;;;-2.41;100.00;100270.91;5037602;28;20033;-75
2023/01/13 02:01:00;;;;;;;11.53;7.43;;;;;;;-2.37;100.00;100274.16;5016392;28;20400;-74
2023/01/13 02:03:26;;;;;;;10.90;8.13;;;;;;;-2.33;100.00;100260.84;5033873;28;20274;-75
2023/01/13 02:05:51;;;;;;;15.90;8.37;;;;;;;-2.33;100.00;100266.06;5016663;28;20033;-74
2023/01/13 02:08:18;;;;;;;10.23;8.57;;;;;;;-2.40;100.00;100249.09;5032895;28;20065;-75
2023/01/13 02:10:51;;;;;;;11.90;7.90;;;;;;;-2.37;100.00;100251.53;5032665;28;20354;-75
2023/01/13 02:13:18;;;;;;;9.23;6.90;;;;;;;-2.33;100.00;100254.78;5035836;28;20116;-74
2023/01/13 02:16:00;;;;;;;10.30;7.35;;;;;;;-2.29;100.00;100249.31;5034180;28;20292;-75
2023/01/13 02:18:26;;;;;;;9.53;6.33;;;;;;;-2.26;100.00;100246.50;5033174;28;20034;-75
2023/01/13 02:21:12;;;;;;;10.53;7.00;;;;;;;-2.26;100.00;100238.69;5032059;28;20310;-74
2023/01/13 02:26:54;;;;;;;8.55;7.10;;;;;;;-2.26;100.00;100222.19;5008351;28;20029;-75
2023/01/13 02:32:31;;;;;;;8.13;6.18;;;;;;;-2.30;100.00;100216.34;5027463;28;20539;-73
2023/01/13 02:35:15;;;;;;;9.10;7.55;;;;;;;-2.24;100.00;100217.72;5031516;28;20068;-70
2023/01/13 02:37:42;;;;;;;7.10;5.60;;;;;;;-2.24;100.00;100213.34;5029122;28;20022;-71
2023/01/13 02:40:16;;;;;;;11.00;7.40;;;;;;;-2.24;100.00;100208.13;5031849;28;20034;-71
2023/01/13 02:45:42;;;;;;;13.70;8.18;;;;;;;-2.25;100.00;100195.19;5031774;28;20256;-71
2023/01/13 02:48:12;;;;;;;8.80;6.68;;;;;;;-2.17;100.00;100199.91;5031186;28;20017;-70
2023/01/13 02:50:43;;;;;;;7.43;6.13;;;;;;;-2.17;100.00;100212.97;5030365;28;20509;-71
2023/01/13 02:53:31;;;;;;;9.45;6.72;;;;;;;-2.18;100.00;100206.91;5030085;28;20053;-71
2023/01/13 02:56:00;;;;;;;9.77;6.27;;;;;;;-2.23;100.00;100183.72;5030142;28;20113;-71
2023/01/13 02:58:28;;;;;;;8.32;6.50;;;;;;;-2.15;100.00;100190.22;5033757;28;20346;-70
2023/01/13 03:00:54;;;;;;;11.93;7.22;;;;;;;-2.19;100.00;100179.97;5034105;28;20065;-70
2023/01/13 03:03:19;;;;;;;7.40;6.40;;;;;;;-2.19;100.00;100174.75;5034305;28;20538;-71
2023/01/13 03:05:49;;;;;;;11.10;7.37;;;;;;;-2.13;100.00;100157.88;5035764;28;20445;-71
2023/01/13 03:08:32;;;;;;;8.65;7.18;;;;;;;-2.14;100.00;100165.81;5035479;28;20483;-70
2023/01/13 03:11:02;;;;;;;12.75;7.30;;;;;;;-2.12;100.00;100166.56;5035551;28;20481;-71
2023/01/13 03:13:40;;;;;;;9.35;7.90;;;;;;;-2.13;100.00;100167.47;5035572;28;20029;-71
2023/01/13 03:16:50;;;;;;;10.68;7.97;;;;;;;-2.12;100.00;100158.72;5035780;28;20046;-71
2023/01/13 03:20:05;;;;;;;8.77;6.70;;;;;;;-2.38;100.00;100095.16;5036097;28;20380;-71
2023/01/13 03:22:40;;;;;;;10.20;7.70;;;;;;;-2.13;100.00;100125.75;5035957;28;20049;-72
2023/01/13 03:25:13;;;;;;;11.13;9.07;;;;;;;-2.04;100.00;100135.59;5035593;28;20112;-72
2023/01/13 03:28:06;;;;;;;10.45;7.43;;;;;;;-2.02;100.00;100128.53;5035787;28;20477;-72
2023/01/13 03:30:32;;;;;;;8.55;6.80;;;;;;;-2.02;100.00;100123.31;5036171;28;20026;-71
2023/01/13 03:33:08;;;;;;;10.47;7.23;;;;;;;-1.97;100.00;100126.44;5035652;28;20022;-72
2023/01/13 03:35:41;;;;;;;11.20;7.73;;;;;;;-1.99;100.00;100117.88;5035321;28;20268;-72
2023/01/13 03:38:12;;;;;;;8.90;6.87;;;;;;;-2.10;100.00;100091.63;5034947;28;20264;-71
2023/01/13 03:40:46;;;;;;;10.85;7.78;;;;;;;-1.99;100.00;100107.44;5035343;28;20306;-71
2023/01/13 03:46:13;;;;;;;8.80;7.30;;;;;;;-1.96;100.00;100112.47;5035373;28;20300;-71
2023/01/13 03:48:42;;;;;;;10.87;8.83;;;;;;;-1.95;100.00;100095.88;5034923;28;20075;-71
2023/01/13 03:51:14;;;;;;;9.98;6.78;;;;;;;-2.01;100.00;100091.91;5035072;28;20267;-70
2023/01/13 03:53:58;;;;;;;12.87;8.13;;;;;;;-1.91;100.00;100097.34;5035088;28;20179;-70
2023/01/13 03:56:37;;;;;;;9.75;7.38;;;;;;;-1.87;100.00;100080.53;5034847;28;20589;-71
2023/01/13 03:59:05;;;;;;;8.00;7.18;;;;;;;-1.85;100.00;100106.53;5034651;28;20499;-73
2023/01/13 04:01:38;;;;;;;11.48;7.72;;;;;;;-1.96;100.00;100052.44;5034659;28;20035;-72
2023/01/13 04:04:11;;;;;;;8.23;7.27;;;;;;;-1.80;100.00;100089.63;5035193;28;20022;-70
2023/01/13 04:06:56;;;;;;;10.23;7.27;;;;;;;-1.81;100.00;100095.78;5034231;28;20263;-71
2023/01/13 04:09:32;;;;;;;10.35;7.28;;;;;;;-1.79;100.00;100085.25;5015405;28;20260;-72
2023/01/13 04:12:19;;;;;;;11.90;8.40;;;;;;;-1.80;100.00;100065.31;5016713;28;20029;-71
2023/01/13 04:14:45;;;;;;;10.77;8.23;;;;;;;-1.72;100.00;100074.34;5034490;28;20287;-71
2023/01/13 04:17:11;;;;;;;10.30;7.27;;;;;;;-1.69;100.00;100068.91;5034366;28;20052;-72
2023/01/13 04:19:37;;;;;;;8.63;6.97;;;;;;;-1.74;100.00;100067.50;5034470;28;20030;-74
2023/01/13 04:22:02;;;;;;;8.83;7.17;;;;;;;-1.74;100.00;100063.13;5034109;28;20270;-74
2023/01/13 04:24:28;;;;;;;11.77;7.97;;;;;;;-1.67;100.00;100066.19;5034545;28;20021;-72
2023/01/13 04:26:55;;;;;;;10.20;8.63;;;;;;;-1.67;100.00;100061.81;5016529;28;20109;-69
2023/01/13 04:29:21;;;;;;;11.97;8.10;;;;;;;-1.60;100.00;100068.28;5034423;28;20025;-75
2023/01/13 04:31:47;;;;;;;9.30;7.77;;;;;;;-1.61;100.00;100053.56;5034062;28;20260;-71
2023/01/13 04:34:12;;;;;;;11.83;7.90;;;;;;;-1.63;100.00;100034.56;5016409;28;20827;-69
2023/01/13 04:36:38;;;;;;;8.53;7.17;;;;;;;-1.48;100.00;100063.16;5033857;28;20033;-70
2023/01/13 04:39:03;;;;;;;11.00;7.47;;;;;;;-1.52;100.00;100046.88;5034085;28;20029;-72
2023/01/13 04:41:56;;;;;;;12.63;9.43;;;;;;;-1.46;100.00;100041.22;5033902;28;20037;-69
2023/01/13 04:44:17;;;;;;;9.00;6.97;;;;;;;-1.43;100.00;100048.06;5033753;28;20026;-70
2023/01/13 04:46:43;;;;;;;10.30;7.50;;;;;;;-1.41;100.00;100049.63;5033666;28;20496;-69
2023/01/13 04:49:08;;;;;;;9.50;7.17;;;;;;;-1.43;100.00;100033.22;5033870;28;20347;-72
2023/01/13 04:51:34;;;;;;;10.93;7.67;;;;;;;-1.29;100.00;100066.22;5033753;28;20040;-70
2023/01/13 04:53:59;;;;;;;10.43;7.53;;;;;;;-1.29;100.00;100043.53;5016183;28;20116;-70
2023/01/13 04:56:25;;;;;;;12.10;6.33;;;;;;;-1.21;100.00;100047.41;5033797;28;20040;-71
2023/01/13 04:58:50;;;;;;;9.83;7.20;;;;;;;-1.23;100.00;100042.28;5033581;28;20028;-72
2023/01/13 05:01:16;;;;;;;9.97;6.50;;;;;;;-1.12;100.00;100036.34;5033718;28;20037;-72
2023/01/13 05:03:41;;;;;;;7.87;6.30;;;;;;;-1.08;100.00;100043.03;5033582;28;20041;-70
2023/01/13 05:06:06;;;;;;;10.40;6.40;;;;;;;-1.01;100.00;100049.50;5033726;28;20469;-71
2023/01/13 05:08:32;;;;;;;9.67;6.63;;;;;;;-0.96;100.00;100052.59;5033676;28;20032;-72
2023/01/13 05:16:58;;;;;;;14.73;9.53;;;;;;;-1.00;100.00;100031.09;5033356;28;20112;-71
2023/01/13 05:19:14;;;;;;;9.43;5.63;;;;;;;-0.84;100.00;100053.56;5032943;28;20268;-71
2023/01/13 05:27:08;;;;;;;16.83;12.63;;;;;;;-0.82;100.00;100041.22;5033653;28;20715;-73
2023/01/13 05:29:34;;;;;;;10.97;6.90;;;;;;;-0.80;100.00;100037.53;5033569;28;20275;-75
2023/01/13 05:32:01;;;;;;;10.10;7.33;;;;;;;-0.78;100.00;100045.28;5033101;28;20034;-73
2023/01/13 05:34:27;;;;;;;9.80;7.53;;;;;;;-0.83;100.00;100050.84;5015103;28;20177;-72
2023/01/13 05:36:52;;;;;;;9.77;6.60;;;;;;;-0.81;100.00;100033.25;5032827;28;20353;-73
2023/01/13 05:39:18;;;;;;;9.17;7.73;;;;;;;-0.76;100.00;100059.06;5032961;28;20030;-74
2023/01/13 05:44:27;;;;;;;13.73;9.00;;;;;;;-0.72;100.00;100061.34;5032937;28;20040;-72
2023/01/13 05:46:53;;;;;;;11.23;8.10;;;;;;;-0.70;100.00;100075.16;5032736;28;20747;-71
2023/01/13 05:49:18;;;;;;;9.67;7.27;;;;;;;-0.64;100.00;100076.50;5032571;28;20021;-73
2023/01/13 05:51:44;;;;;;;9.67;7.20;;;;;;;-0.65;100.00;100088.75;5032681;28;20026;-68
2023/01/13 05:54:09;;;;;;;8.40;7.00;;;;;;;-0.58;100.00;100093.53;5032775;28;20120;-69
2023/01/13 05:56:35;;;;;;;11.77;7.53;;;;;;;-0.61;100.00;100084.13;5033144;28;20112;-70
2023/01/13 05:59:00;;;;;;;9.30;7.00;;;;;;;-0.57;100.00;100083.00;4999214;28;20041;-72
2023/01/13 06:01:26;;;;;;;9.77;7.77;;;;;;;-0.57;100.00;100084.78;5033214;28;20041;-75
2023/01/13 06:03:51;;;;;;;9.93;7.03;;;;;;;-0.54;100.00;100093.25;5033253;28;20025;-73
2023/01/13 06:06:17;;;;;;;8.80;6.90;;;;;;;-0.48;100.00;100087.56;5032689;28;20436;-71
2023/01/13 06:08:42;;;;;;;11.40;6.47;;;;;;;-0.59;100.00;100063.94;5032706;28;20025;-71
2023/01/13 06:11:08;;;;;;;14.27;8.23;;;;;;;-0.47;100.00;100102.31;5032585;28;20064;-74
2023/01/13 06:13:33;;;;;;;12.83;8.90;;;;;;;-0.42;100.00;100100.19;5032345;28;20506;-72
2023/01/13 06:16:01;;;;;;;13.83;8.17;;;;;;;-0.46;100.00;100095.31;5032689;28;20049;-70
2023/01/13 06:18:27;;;;;;;13.47;7.47;;;;;;;-0.44;100.00;100102.09;5015794;28;20124;-71
2023/01/13 06:20:52;;;;;;;10.37;7.77;;;;;;;-0.45;100.00;100100.44;5033853;28;20355;-71
2023/01/13 06:23:18;;;;;;;18.37;6.70;;;;;;;-0.41;100.00;100091.41;5032680;28;20057;-71
2023/01/13 06:25:50;;;;;;;11.20;7.57;;;;;;;-0.37;100.00;100095.47;5032694;28;20025;-74
2023/01/13 06:28:16;;;;;;;10.60;6.57;;;;;;;-0.32;100.00;100109.06;5032401;28;20041;-72
2023/01/13 06:30:46;;;;;;;11.63;7.73;;;;;;;-0.48;100.00;100082.34;5032275;28;20256;-73
2023/01/13 06:33:16;;;;;;;13.57;7.73;;;;;;;-0.26;100.00;100107.81;5032364;28;20034;-73
2023/01/13 06:35:48;;;;;;;10.97;7.67;;;;;;;-0.24;100.00;100116.38;5032818;28;20268;-72
2023/01/13 06:38:16;;;;;;;12.40;8.50;;;;;;;-0.21;100.00;100123.19;5017400;28;20264;-71
2023/01/13 06:40:42;;;;;;;8.18;6.55;;;;;;;-0.47;100.00;100078.78;5045316;28;20263;-70
2023/01/13 06:43:33;;;;;;;12.40;8.33;;;;;;;-0.19;100.00;100121.28;5040667;28;20440;-74
2023/01/13 06:46:00;;;;;;;13.33;7.77;;;;;;;-0.22;100.00;100118.91;5015068;28;20280;-72
2023/01/13 06:48:33;;;;;;;10.73;7.63;;;;;;;-0.28;100.00;100116.72;5032489;28;20057;-70
2023/01/13 06:50:59;;;;;;;13.10;9.00;;;;;;;-0.28;100.00;100121.94;5034816;28;20268;-72
2023/01/13 06:53:25;;;;;;;11.10;9.63;;;;;;;-0.32;100.00;100111.69;5037161;28;20728;-72
2023/01/13 06:55:51;;;;;;;14.47;9.43;;;;;;;-0.26;100.00;100120.06;5038043;28;20256;-74
2023/01/13 06:58:16;;;;;;;10.93;7.60;;;;;;;-0.24;100.00;100129.47;5035932;28;20037;-74
2023/01/13 07:00:42;;;;;;;11.50;7.70;;;;;;;-0.23;100.00;100135.53;5036793;28;20021;-74
2023/01/13 07:03:12;;;;;;;11.97;8.60;;;;;;;-0.23;100.00;100146.00;5033490;28;20373;-74
2023/01/13 07:05:39;;;;;;;14.23;8.87;;;;;;;-0.19;100.00;100144.84;5032231;28;20029;-72
2023/01/13 07:08:06;;;;;;;13.73;9.10;;;;;;;-0.17;100.00;100148.19;5031788;28;20272;-73
2023/01/13 07:10:32;;;;;;;16.03;10.10;;;;;;;-0.22;100.00;100126.75;5032033;28;20347;-74
2023/01/13 07:16:03;;;;;;;14.23;9.23;;;;;;;-0.25;100.00;100153.97;5032521;28;20264;-73
2023/01/13 07:18:31;;;;;;;11.80;8.47;;;;;;;-0.20;100.00;100169.34;5032106;28;20821;-74
2023/01/13 07:20:58;;;;;;;12.83;8.67;;;;;;;-0.21;100.00;100157.19;5014399;28;20296;-71
2023/01/13 07:23:26;;;;;;;14.57;10.47;;;;;;;-0.20;100.00;100164.94;5014443;28;20347;-71
2023/01/13 07:25:55;;;;;;;11.23;7.75;;;;;;;-0.19;100.00;100144.84;5032401;28;20279;-75
2023/01/13 07:28:20;;;;;;;14.15;9.02;;;;;;;-0.26;100.00;100135.75;5032466;28;20025;-74
2023/01/13 07:30:45;;;;;;;16.30;9.70;;;;;;;-0.13;100.00;100160.09;5014793;28;20087;-73
2023/01/13 07:33:11;;;;;;;12.63;8.63;;;;;;;-0.07;100.00;100167.50;5032446;28;20358;-72
2023/01/13 07:35:36;;;;;;;13.30;8.73;;;;;;;-0.03;100.00;100177.66;5032560;28;20040;-72
2023/01/13 07:38:02;;;;;;;12.37;8.70;;;;;;;-0.10;100.00;100168.56;5033716;28;20431;-74
2023/01/13 07:40:28;;;;;;;11.90;8.40;;;;;;;0.00;100.00;100174.00;5033092;28;20029;-73
2023/01/13 07:45:40;;;;;;;18.63;8.53;;;;;;;0.04;100.00;100191.16;5019570;28;20545;-73
2023/01/13 07:48:06;;;;;;;14.13;8.73;;;;;;;0.06;100.00;100193.66;5018967;28;20292;-74
2023/01/13 07:50:31;;;;;;;16.93;8.77;;;;;;;0.06;100.00;100173.56;5035914;28;20116;-75
2023/01/13 07:53:00;;;;;;;12.93;8.07;;;;;;;0.12;100.00;100193.22;5017492;28;20064;-73
2023/01/13 07:55:26;;;;;;;11.77;8.97;;;;;;;0.11;100.00;100199.41;5017170;28;20044;-74
2023/01/13 07:57:52;;;;;;;14.10;8.10;;;;;;;0.15;100.00;100209.53;5035810;28;20256;-74
2023/01/13 08:00:18;;;;;;;12.13;9.17;;;;;;;0.11;100.00;100213.34;5037979;28;20037;-71
2023/01/13 08:02:43;;;;;;;10.60;7.37;;;;;;;-0.01;100.00;100182.78;5042160;28;20049;-76
2023/01/13 08:05:09;;;;;;;15.77;8.67;;;;;;;0.20;100.00;100217.91;5042868;28;20053;-73
2023/01/13 08:07:34;;;;;;;12.33;7.87;;;;;;;0.19;100.00;100220.63;5049393;28;20060;-72
2023/01/13 08:10:01;;;;;;;11.03;8.00;;;;;;;0.27;100.00;100240.09;5051023;28;20067;-72
2023/01/13 08:15:13;;;;;;;16.53;10.00;;;;;;;0.28;100.00;100257.47;5044715;28;19948;-75
2023/01/13 08:17:39;;;;;;;15.17;9.80;;;;;;;0.25;100.00;100252.44;5034495;28;20323;-73
2023/01/13 08:20:08;;;;;;;15.33;8.80;;;;;;;0.30;100.00;100253.00;5034876;28;20033;-73
2023/01/13 08:22:33;;;;;;;;;;;;;;;0.37;100.00;100249.91;5035056;28;20025;-75
2023/01/13 08:24:59;;;;;;;12.87;8.87;;;;;;;0.35;100.00;100249.19;5034672;28;20305;-74
2023/01/13 08:27:25;;;;;;;16.33;9.23;;;;;;;0.35;100.00;100262.28;5035614;28;20452;-73
2023/01/13 08:29:50;;;;;;;13.30;9.70;;;;;;;0.13;100.00;100227.16;5034489;28;20036;-73
2023/01/13 08:32:16;;;;;;;14.50;8.97;;;;;;;0.40;100.00;100270.66;5034364;28;20033;-74
2023/01/13 08:34:41;;;;;;;17.80;9.17;;;;;;;0.39;100.00;100269.81;5034079;28;20469;-73
2023/01/13 08:37:07;;;;;;;13.10;10.13;;;;;;;0.40;100.00;100274.09;5034090;28;20108;-74
2023/01/13 08:39:34;;;;;;;13.13;9.20;;;;;;;0.43;100.00;100275.66;5033855;28;20125;-73
2023/01/13 08:42:01;;;;;;;14.67;8.97;;;;;;;0.41;100.00;100269.72;5016268;28;20252;-74
2023/01/13 08:44:29;;;;;;;11.60;7.53;;;;;;;0.52;100.00;100285.47;5033884;28;20423;-74
2023/01/13 08:46:58;;;;;;;11.27;7.77;;;;;;;0.58;100.00;100290.31;5034276;28;20264;-71
2023/01/13 08:49:24;;;;;;;14.93;8.90;;;;;;;0.60;100.00;100283.16;5035164;28;20275;-74
2023/01/13 08:51:51;;;;;;;16.27;9.70;;;;;;;0.60;100.00;100283.16;5033976;28;20072;-75
2023/01/13 08:54:17;;;;;;;14.60;9.70;;;;;;;0.38;100.00;100241.94;5033104;28;20291;-74
2023/01/13 08:56:43;;;;;;;10.73;7.43;;;;;;;0.68;100.00;100291.31;5033707;28;20651;-73
2023/01/13 08:59:17;;;;;;;12.67;8.17;;;;;;;0.75;100.00;100300.38;5033506;28;20366;-73
2023/01/13 09:01:44;;;;;;;13.00;7.37;;;;;;;0.75;100.00;100289.91;5034138;28;20318;-74
2023/01/13 09:04:21;;;;;;;12.47;8.07;;;;;;;0.81;100.00;100299.09;5034000;28;20357;-75
2023/01/13 09:06:48;;;;;;;15.43;8.03;;;;;;;0.77;100.00;100295.88;5033773;28;20271;-74
2023/01/13 09:09:14;;;;;;;10.17;8.30;;;;;;;0.85;100.00;100304.00;5033412;28;20581;-74
2023/01/13 09:14:32;;;;;;;12.17;8.20;;;;;;;1.02;100.00;100309.81;5035438;28;20291;-75
2023/01/13 09:16:59;;;;;;;17.48;8.73;;;;;;;1.07;100.00;100291.94;5037782;28;20279;-74
2023/01/13 09:19:28;;;;;;;13.50;7.77;;;;;;;1.18;100.00;100305.13;5035339;28;20496;-80
2023/01/13 09:21:55;;;;;;;15.90;8.00;;;;;;;1.21;100.00;100310.13;5035657;28;20264;-79
2023/01/13 09:24:24;;;;;;;9.53;6.63;;;;;;;1.22;100.00;100331.00;5034618;28;20248;-77
2023/01/13 09:26:50;;;;;;;12.87;7.43;;;;;;;1.24;100.00;100325.66;5034086;28;20268;-76
2023/01/13 09:29:18;;;;;;;9.52;6.22;;;;;;;1.12;100.00;100314.25;5000627;28;20270;-75
2023/01/13 09:31:46;;;;;;;9.77;6.43;;;;;;;1.18;100.00;100337.44;5033460;28;20033;-76
2023/01/13 09:37:00;;;;;;;11.03;8.23;;;;;;;1.11;100.00;100338.81;5033500;28;20037;-74
2023/01/13 09:39:28;;;;;;;12.17;7.07;;;;;;;1.14;100.00;100348.25;5033044;28;20342;-75
2023/01/13 09:45:15;;;;;;;12.43;6.90;;;;;;;1.28;100.00;100361.19;5032851;28;20124;-73
2023/01/13 09:47:56;;;;;;;9.83;5.83;;;;;;;1.32;100.00;100372.28;5000232;28;20284;-76
2023/01/13 09:50:47;;;;;;;8.17;6.30;;;;;;;1.35;100.00;100367.66;5033091;28;20268;-75
2023/01/13 09:53:20;;;;;;;10.33;6.17;;;;;;;1.35;100.00;100370.28;5035084;28;20284;-74
2023/01/13 09:55:46;;;;;;;9.63;5.93;;;;;;;1.41;100.00;100379.47;5035231;28;20292;-75
2023/01/13 09:58:15;;;;;;;6.57;5.87;;;;;;;1.41;100.00;100380.31;5016552;28;20264;-73
2023/01/13 10:00:56;;;;;;;9.93;6.27;;;;;;;1.41;100.00;100382.94;4999529;28;20373;-75
2023/01/13 10:03:30;;;;;;;8.53;5.67;;;;;;;1.38;100.00;100380.53;5034436;28;20306;-73
2023/01/13 10:06:16;;;;;;;11.63;6.60;;;;;;;1.41;100.00;100390.81;5032723;28;20288;-76
2023/01/13 10:08:43;;;;;;;8.57;5.93;;;;;;;1.43;100.00;100395.94;5032700;28;20637;-75
2023/01/13 10:14:10;;;;;;;9.98;6.18;;;;;;;1.39;100.00;100391.88;5033091;28;20711;-74
2023/01/13 10:16:44;;;;;;;8.73;6.45;;;;;;;1.45;100.00;100408.03;5011266;28;20046;-72
2023/01/13 10:19:28;;;;;;;8.70;6.00;;;;;;;1.45;100.00;100413.28;5012849;28;20038;-72
2023/01/13 10:22:23;;;;;;;9.63;6.90;;;;;;;1.48;100.00;100410.44;5013666;28;20732;-74
2023/01/13 10:25:06;;;;;;;11.73;6.90;;;;;;;1.50;100.00;100410.31;4960100;28;20298;-75
2023/01/13 10:27:38;;;;;;;7.03;5.50;;;;;;;1.53;100.00;100423.19;5015060;28;20261;-74
2023/01/13 10:30:20;;;;;;;9.63;6.77;;;;;;;1.32;100.00;100390.66;5013707;28;20745;-76
2023/01/13 10:32:57;;;;;;;10.57;6.87;;;;;;;1.41;100.00;100400.47;5014482;28;20261;-72
2023/01/13 10:35:58;;;;;;;10.97;6.60;;;;;;;1.58;100.00;100428.09;5030954;28;20299;-74
2023/01/13 10:38:44;;;;;;;12.93;6.90;;;;;;;1.54;100.00;100428.34;5013083;28;20268;-74
2023/01/13 10:41:25;;;;;;;19.23;8.70;;;;;;;1.58;100.00;100433.34;5012904;28;20609;-74
2023/01/13 10:43:51;;;;;;;19.00;7.40;;;;;;;1.57;100.00;100429.06;5012211;28;20273;-74
2023/01/13 10:46:18;;;;;;;14.03;8.90;;;;;;;1.58;100.00;100430.72;5013186;28;20751;-72
2023/01/13 10:48:51;;;;;;;8.18;6.53;;;;;;;1.60;100.00;100432.28;5013046;28;20034;-73
2023/01/13 10:51:17;;;;;;;16.00;7.40;;;;;;;1.61;100.00;100444.47;5012703;28;20037;-73
2023/01/13 10:53:50;;;;;;;10.10;8.03;;;;;;;1.52;100.00;100424.16;5012248;28;20263;-72
2023/01/13 10:56:18;;;;;;;11.50;7.67;;;;;;;1.60;100.00;100441.94;5012696;28;20033;-74
2023/01/13 10:58:44;;;;;;;17.52;9.00;;;;;;;1.63;100.00;100450.44;5012300;28;20253;-73
2023/01/13 11:01:20;;;;;;;17.63;10.00;;;;;;;1.62;100.00;100450.56;5012112;28;20037;-75
2023/01/13 11:03:47;;;;;;;16.63;9.20;;;;;;;1.63;100.00;100452.22;5012197;28;20394;-75
2023/01/13 11:06:20;;;;;;;14.00;8.40;;;;;;;1.62;100.00;100447.94;5011912;28;20276;-72
2023/01/13 11:08:48;;;;;;;14.73;9.67;;;;;;;1.55;100.00;100452.78;5012072;28;20301;-71
2023/01/13 11:11:27;;;;;;;11.35;8.35;;;;;;;1.59;100.00;100446.38;5011140;28;20261;-74
2023/01/13 11:16:50;;;;;;;14.10;8.60;;;;;;;1.52;100.00;100440.75;5009991;28;20052;-74
2023/01/13 11:19:19;;;;;;;14.13;8.97;;;;;;;1.59;100.00;100463.91;5016022;28;20269;-72
2023/01/13 11:21:57;;;;;;;21.70;12.00;;;;;;;1.64;100.00;100459.16;5015640;28;20255;-72
2023/01/13 11:24:35;;;;;;;14.80;8.63;;;;;;;1.71;100.00;100466.44;5014536;28;20272;-74
2023/01/13 11:27:23;;;;;;;21.10;10.80;;;;;;;1.68;100.00;100466.69;5015481;28;20946;-73
2023/01/13 11:30:20;;;;;;;15.57;8.70;;;;;;;1.69;100.00;100467.53;5015498;28;20377;-73
2023/01/13 11:33:13;;;;;;;18.10;9.57;;;;;;;1.65;100.00;100476.56;5015745;28;20256;-72
2023/01/13 11:36:05;;;;;;;20.00;9.23;;;;;;;1.63;100.00;100473.22;5015567;28;20281;-74
2023/01/13 11:38:44;;;;;;;14.37;10.23;;;;;;;1.67;100.00;100479.91;5014006;28;20267;-74
2023/01/13 11:41:34;;;;;;;14.67;8.93;;;;;;;1.70;100.00;100484.94;5015309;28;20260;-73
2023/01/13 11:44:02;;;;;;;16.80;9.90;;;;;;;1.71;100.00;100490.06;5015454;28;20272;-73
2023/01/13 11:46:28;;;;;;;17.85;8.40;;;;;;;1.55;100.00;100472.00;5015018;28;20288;-74
2023/01/13 11:48:56;;;;;;;20.00;11.00;;;;;;;1.71;100.00;100491.88;5015460;28;20085;-73
2023/01/13 11:51:27;;;;;;;14.33;10.07;;;;;;;1.69;100.00;100499.84;5015084;28;20253;-73
2023/01/13 11:54:07;;;;;;;16.43;9.33;;;;;;;1.73;100.00;100505.72;5014942;28;20133;-73
2023/01/13 11:57:16;;;;;;;19.50;9.87;;;;;;;1.72;100.00;100499.63;5015141;28;20330;-73
2023/01/13 12:00:13;;;;;;;17.23;9.20;;;;;;;1.70;100.00;100500.69;5015054;28;20261;-76
2023/01/13 12:03:12;;;;;;;13.63;9.60;;;;;;;1.70;100.00;100500.69;5015308;28;20276;-73
2023/01/13 12:06:01;;;;;;;15.80;9.30;;;;;;;1.70;100.00;100505.94;5015178;28;20268;-74
2023/01/13 12:08:39;;;;;;;19.93;10.87;;;;;;;1.75;100.00;100503.84;5013553;28;20621;-73
2023/01/13 12:11:12;;;;;;;14.27;8.97;;;;;;;1.76;100.00;100500.28;5014527;28;20292;-74
2023/01/13 12:14:22;;;;;;;15.87;9.37;;;;;;;1.77;100.00;100501.94;5014947;28;20299;-73
2023/01/13 12:16:50;;;;;;;12.30;9.87;;;;;;;1.66;100.00;100486.97;5026500;28;20281;-72
2023/01/13 12:19:29;;;;;;;14.27;10.07;;;;;;;1.72;100.00;100501.41;5034461;28;20375;-76
2023/01/13 12:22:07;;;;;;;16.30;10.10;;;;;;;1.76;100.00;100502.91;5034327;28;20355;-74
2023/01/13 12:24:57;;;;;;;14.00;9.32;;;;;;;1.75;100.00;100509.09;5034408;28;20359;-74